createdAt,value
2018-08-23T00:01:28.978Z,8.17
2018-08-23T00:04:03.167Z,7.50
2018-08-23T00:06:31.499Z,8.90
2018-08-23T00:08:59.725Z,8.30
2018-08-23T00:11:30.731Z,8.10
2018-08-23T00:13:59.064Z,7.60
2018-08-23T00:16:32.996Z,8.33
2018-08-23T00:19:01.899Z,7.20
2018-08-23T00:21:30.186Z,7.67
2018-08-23T00:24:22.698Z,7.73
2018-08-23T00:26:59.029Z,7.33
2018-08-23T00:29:28.466Z,8.00
2018-08-23T00:33:04.062Z,7.60
2018-08-23T00:35:33.049Z,8.43
2018-08-23T00:38:01.834Z,7.77
2018-08-23T00:40:30.109Z,7.70
2018-08-23T00:43:04.246Z,8.07
2018-08-23T00:45:32.475Z,7.70
2018-08-23T00:48:00.715Z,8.47
2018-08-23T00:51:03.460Z,8.17
2018-08-23T00:53:34.100Z,7.90
2018-08-23T00:56:15.259Z,7.90
2018-08-23T00:59:03.184Z,7.80
2018-08-23T01:01:32.306Z,7.87
2018-08-23T01:04:00.538Z,7.27
2018-08-23T01:06:40.553Z,7.43
2018-08-23T01:09:09.837Z,8.33
2018-08-23T01:11:38.122Z,7.83
2018-08-23T01:14:06.410Z,8.20
2018-08-23T01:16:34.634Z,9.03
2018-08-23T01:19:08.178Z,8.00
2018-08-23T01:21:38.166Z,7.70
2018-08-23T01:24:06.562Z,8.17
2018-08-23T01:26:35.241Z,7.73
2018-08-23T01:29:13.506Z,7.00
2018-08-23T01:31:41.755Z,8.00
2018-08-23T01:34:09.995Z,8.47
2018-08-23T01:36:38.228Z,8.07
2018-08-23T01:39:07.741Z,7.77
2018-08-23T01:41:35.967Z,7.80
2018-08-23T01:44:04.207Z,8.03
2018-08-23T01:46:47.915Z,8.20
2018-08-23T01:49:18.626Z,7.90
2018-08-23T01:51:46.904Z,7.77
2018-08-23T01:54:15.171Z,7.17
2018-08-23T01:56:43.387Z,7.60
2018-08-23T01:59:11.639Z,7.77
2018-08-23T02:01:39.875Z,7.80
2018-08-23T02:04:08.092Z,8.50
2018-08-23T02:06:36.539Z,8.10
2018-08-23T02:09:07.370Z,7.27
2018-08-23T02:11:35.590Z,7.93
2018-08-23T02:14:03.824Z,7.87
2018-08-23T02:16:44.115Z,8.10
2018-08-23T02:19:12.346Z,7.70
2018-08-23T02:21:40.565Z,8.03
2018-08-23T02:24:08.811Z,8.50
2018-08-23T02:26:37.039Z,8.17
2018-08-23T02:29:05.443Z,8.07
2018-08-23T02:31:33.683Z,8.67
2018-08-23T02:34:01.923Z,8.20
2018-08-23T02:36:30.152Z,8.30
2018-08-23T02:38:59.823Z,8.47
2018-08-23T02:41:28.322Z,8.17
2018-08-23T02:43:56.568Z,7.53
2018-08-23T02:46:24.799Z,8.20
2018-08-23T02:48:53.059Z,7.90
2018-08-23T02:51:25.786Z,8.13
2018-08-23T02:53:54.029Z,8.50
2018-08-23T02:56:22.270Z,8.00
2018-08-23T02:59:00.846Z,7.73
2018-08-23T03:01:32.632Z,8.67
2018-08-23T03:04:11.857Z,7.90
2018-08-23T03:07:12.882Z,7.30
2018-08-23T03:09:43.548Z,8.30
2018-08-23T03:12:14.681Z,8.23
2018-08-23T03:14:42.909Z,9.33
2018-08-23T03:17:12.033Z,9.20
2018-08-23T03:19:50.490Z,8.40
2018-08-23T03:22:18.815Z,8.43
2018-08-23T03:24:47.052Z,8.80
2018-08-23T03:27:15.272Z,8.57
2018-08-23T03:29:43.494Z,7.40
2018-08-23T03:32:11.724Z,8.00
2018-08-23T03:34:39.951Z,8.80
2018-08-23T03:37:08.186Z,8.77
2018-08-23T03:39:36.422Z,8.23
2018-08-23T03:42:11.028Z,7.73
2018-08-23T03:44:39.609Z,7.97
2018-08-23T03:47:07.822Z,7.60
2018-08-23T03:49:41.554Z,8.80
2018-08-23T03:52:09.793Z,8.20
2018-08-23T03:54:38.002Z,8.87
2018-08-23T03:57:17.669Z,8.77
2018-08-23T03:59:47.055Z,7.67
2018-08-23T04:02:16.275Z,9.30
2018-08-23T04:04:46.274Z,9.27
2018-08-23T04:07:14.668Z,8.23
2018-08-23T04:09:43.343Z,8.90
2018-08-23T04:12:11.571Z,8.40
2018-08-23T04:14:39.795Z,8.43
2018-08-23T04:17:10.237Z,8.90
2018-08-23T04:19:41.567Z,8.27
2018-08-23T04:22:09.800Z,7.93
2018-08-23T04:24:42.527Z,8.00
2018-08-23T04:27:11.722Z,7.87
2018-08-23T04:29:45.916Z,8.77
2018-08-23T04:32:15.048Z,8.73
2018-08-23T04:34:43.254Z,8.70
2018-08-23T04:37:11.497Z,9.53
2018-08-23T04:39:44.605Z,8.27
2018-08-23T04:42:12.835Z,9.30
2018-08-23T04:44:48.282Z,7.80
2018-08-23T04:47:16.527Z,8.63
2018-08-23T04:49:44.766Z,8.97
2018-08-23T04:52:13.004Z,8.37
2018-08-23T04:54:41.240Z,9.33
2018-08-23T04:57:09.477Z,8.73
2018-08-23T04:59:37.718Z,9.13
2018-08-23T05:02:06.240Z,8.93
2018-08-23T05:04:34.463Z,9.10
2018-08-23T05:07:02.704Z,8.30
2018-08-23T05:09:30.926Z,8.70
2018-08-23T05:11:59.165Z,8.87
2018-08-23T05:14:27.389Z,7.60
2018-08-23T05:16:55.618Z,8.17
2018-08-23T05:19:23.841Z,9.30
2018-08-23T05:21:52.091Z,8.93
2018-08-23T05:24:23.451Z,8.07
2018-08-23T05:26:51.747Z,8.83
2018-08-23T05:29:19.982Z,8.80
2018-08-23T05:31:48.222Z,8.03
2018-08-23T05:34:16.451Z,8.90
2018-08-23T05:36:44.686Z,9.40
2018-08-23T05:39:12.907Z,9.97
2018-08-23T05:41:41.137Z,9.07
2018-08-23T05:44:21.145Z,10.00
2018-08-23T05:46:56.113Z,8.67
2018-08-23T05:49:24.794Z,9.33
2018-08-23T05:51:56.082Z,10.60
2018-08-23T05:54:24.335Z,8.50
2018-08-23T05:56:52.610Z,10.37
2018-08-23T05:59:23.188Z,9.00
2018-08-23T06:01:51.541Z,8.83
2018-08-23T06:04:29.927Z,8.10
2018-08-23T06:06:58.142Z,9.37
2018-08-23T06:09:26.380Z,8.77
2018-08-23T06:11:54.602Z,7.93
2018-08-23T06:14:22.828Z,8.20
2018-08-23T06:16:58.553Z,8.03
2018-08-23T06:19:27.870Z,9.00
2018-08-23T06:21:56.338Z,8.10
2018-08-23T06:24:28.318Z,8.17
2018-08-23T06:26:58.822Z,8.20
2018-08-23T06:29:35.087Z,7.80
2018-08-23T06:32:10.582Z,8.70
2018-08-23T06:34:48.052Z,8.20
2018-08-23T06:37:16.814Z,8.10
2018-08-23T06:39:45.048Z,7.40
2018-08-23T06:42:13.280Z,8.10
2018-08-23T06:44:46.915Z,7.63
2018-08-23T06:47:18.531Z,7.07
2018-08-23T06:49:47.950Z,7.33
2018-08-23T06:52:26.971Z,7.67
2018-08-23T06:54:55.659Z,7.37
2018-08-23T06:57:23.882Z,6.97
2018-08-23T06:59:52.117Z,6.73
2018-08-23T07:02:20.338Z,7.13
2018-08-23T07:04:48.568Z,7.03
2018-08-23T07:07:18.202Z,7.53
2018-08-23T07:09:46.456Z,7.23
2018-08-23T07:12:19.220Z,7.30
2018-08-23T07:14:48.626Z,6.83
2018-08-23T07:17:22.404Z,6.43
2018-08-23T07:19:50.826Z,7.03
2018-08-23T07:22:20.739Z,7.00
2018-08-23T07:24:49.723Z,6.93
2018-08-23T07:27:19.031Z,6.90
2018-08-23T07:29:48.570Z,6.60
2018-08-23T07:32:19.863Z,7.23
2018-08-23T07:34:58.204Z,6.50
2018-08-23T07:37:26.418Z,6.20
2018-08-23T07:39:59.810Z,6.60
2018-08-23T07:42:30.175Z,6.23
2018-08-23T07:44:59.096Z,6.57
2018-08-23T07:47:27.512Z,6.23
2018-08-23T07:49:56.847Z,7.07
2018-08-23T07:52:26.194Z,6.60
2018-08-23T07:54:54.446Z,6.40
2018-08-23T07:57:22.678Z,6.50
2018-08-23T07:59:55.118Z,6.53
2018-08-23T08:02:23.352Z,6.70
2018-08-23T08:04:51.563Z,6.53
2018-08-23T08:07:25.263Z,6.53
2018-08-23T08:09:53.508Z,6.33
2018-08-23T08:12:27.058Z,6.43
2018-08-23T08:14:55.361Z,6.80
2018-08-23T08:17:30.774Z,7.00
2018-08-23T08:19:58.973Z,6.20
2018-08-23T08:22:27.207Z,6.83
2018-08-23T08:25:06.779Z,7.10
2018-08-23T08:27:34.994Z,6.73
2018-08-23T08:30:03.229Z,6.77
2018-08-23T08:32:31.511Z,6.67
2018-08-23T08:34:59.774Z,6.37
2018-08-23T08:37:28.634Z,6.40
2018-08-23T08:39:57.094Z,7.20
2018-08-23T08:42:26.663Z,6.80
2018-08-23T08:44:59.188Z,6.30
2018-08-23T08:47:27.475Z,5.93
2018-08-23T08:49:55.710Z,6.30
2018-08-23T08:52:23.934Z,5.90
2018-08-23T08:54:52.176Z,6.80
2018-08-23T08:57:24.475Z,6.33
2018-08-23T08:59:53.246Z,6.20
2018-08-23T09:02:21.475Z,6.40
2018-08-23T09:04:49.685Z,6.60
2018-08-23T09:07:17.905Z,6.43
2018-08-23T09:09:46.140Z,7.03
2018-08-23T09:12:14.382Z,6.70
2018-08-23T09:14:43.221Z,6.50
2018-08-23T09:17:28.235Z,7.30
2018-08-23T09:20:04.757Z,6.67
2018-08-23T09:22:40.092Z,7.40
2018-08-23T09:25:10.574Z,7.00
2018-08-23T09:27:41.757Z,6.90
2018-08-23T09:30:15.435Z,7.63
2018-08-23T09:32:52.411Z,6.90
2018-08-23T09:35:22.580Z,7.07
2018-08-23T09:37:55.077Z,7.03
2018-08-23T09:40:24.537Z,7.20
2018-08-23T09:42:52.785Z,7.37
2018-08-23T09:45:21.016Z,7.37
2018-08-23T09:47:49.232Z,7.73
2018-08-23T09:50:17.541Z,7.47
2018-08-23T09:52:49.835Z,7.30
2018-08-23T09:55:19.322Z,8.10
2018-08-23T09:57:47.927Z,6.83
2018-08-23T10:00:21.557Z,7.43
2018-08-23T10:02:55.178Z,7.83
2018-08-23T10:05:28.825Z,7.53
2018-08-23T10:08:02.588Z,7.60
2018-08-23T10:11:36.844Z,7.10
2018-08-23T10:14:10.293Z,7.27
2018-08-23T10:16:43.775Z,8.20
2018-08-23T10:19:17.499Z,7.90
2018-08-23T10:21:51.238Z,7.43
2018-08-23T10:24:24.555Z,7.70
2018-08-23T10:26:53.323Z,7.67
2018-08-23T10:29:21.879Z,8.20
2018-08-23T10:31:50.127Z,13.13
2018-08-23T10:34:18.351Z,7.67
2018-08-23T10:36:46.558Z,6.80
2018-08-23T10:39:14.783Z,7.33
2018-08-23T10:41:42.995Z,7.97
2018-08-23T10:44:11.226Z,7.93
2018-08-23T10:46:44.688Z,7.43
2018-08-23T10:49:12.907Z,7.80
2018-08-23T10:51:41.333Z,7.77
2018-08-23T10:54:09.565Z,8.37
2018-08-23T10:56:37.777Z,8.30
2018-08-23T10:59:06.023Z,7.50
2018-08-23T11:01:34.227Z,8.90
2018-08-23T11:04:05.427Z,7.80
2018-08-23T11:06:34.013Z,7.40
2018-08-23T11:09:07.529Z,7.53
2018-08-23T11:11:36.760Z,7.83
2018-08-23T11:14:10.445Z,7.53
2018-08-23T11:16:44.138Z,7.90
2018-08-23T11:19:17.731Z,7.60
2018-08-23T11:21:45.956Z,7.77
2018-08-23T11:24:14.174Z,8.03
2018-08-23T11:26:42.397Z,7.30
2018-08-23T11:29:10.615Z,7.70
2018-08-23T11:31:38.848Z,8.60
2018-08-23T11:34:07.123Z,8.20
2018-08-23T11:36:35.347Z,8.13
2018-08-23T11:39:04.022Z,7.20
2018-08-23T11:41:32.235Z,7.40
2018-08-23T11:44:00.464Z,8.30
2018-08-23T11:46:28.667Z,7.90
2018-08-23T11:48:56.968Z,7.97
2018-08-23T11:51:25.106Z,8.10
2018-08-23T11:53:53.384Z,7.67
2018-08-23T11:56:21.582Z,7.17
2018-08-23T11:58:49.787Z,7.80
2018-08-23T12:01:18.071Z,6.80
2018-08-23T12:03:46.639Z,6.57
2018-08-23T12:06:16.054Z,7.20
2018-08-23T12:08:44.636Z,7.47
2018-08-23T12:11:12.857Z,6.90
2018-08-23T12:13:45.398Z,7.67
2018-08-23T12:16:13.614Z,7.77
2018-08-23T12:18:41.827Z,8.80
2018-08-23T12:21:10.051Z,7.80
2018-08-23T12:23:38.266Z,6.37
2018-08-23T12:26:06.517Z,7.43
2018-08-23T12:28:40.169Z,6.53
2018-08-23T12:31:08.426Z,6.40
2018-08-23T12:33:36.659Z,7.20
2018-08-23T12:36:06.776Z,6.30
2018-08-23T12:38:40.467Z,6.37
2018-08-23T12:41:14.179Z,6.73
2018-08-23T12:43:47.854Z,7.47
2018-08-23T12:46:16.763Z,7.80
2018-08-23T12:48:45.514Z,7.60
2018-08-23T12:51:13.775Z,7.30
2018-08-23T12:53:41.992Z,6.40
2018-08-23T12:56:10.237Z,7.43
2018-08-23T12:58:38.455Z,6.90
2018-08-23T13:01:06.675Z,6.03
2018-08-23T13:03:34.960Z,5.47
2018-08-23T13:06:03.214Z,5.93
2018-08-23T13:08:31.367Z,5.63
2018-08-23T13:10:59.670Z,6.23
2018-08-23T13:13:27.850Z,5.30
2018-08-23T13:15:56.072Z,6.40
2018-08-23T13:18:24.307Z,6.63
2018-08-23T13:20:52.522Z,5.80
2018-08-23T13:23:20.741Z,6.20
2018-08-23T13:25:54.513Z,7.00
2018-08-23T13:28:22.965Z,6.60
2018-08-23T13:30:51.165Z,7.20
2018-08-23T13:33:19.394Z,5.90
2018-08-23T13:35:47.626Z,7.60
2018-08-23T13:38:15.924Z,6.07
2018-08-23T13:40:44.078Z,7.00
2018-08-23T13:43:12.310Z,6.33
2018-08-23T13:45:40.526Z,6.33
2018-08-23T13:48:08.777Z,6.23
2018-08-23T13:50:36.996Z,6.37
2018-08-23T13:53:05.226Z,6.57
2018-08-23T13:55:33.446Z,5.60
2018-08-23T13:58:01.665Z,5.40
2018-08-23T14:00:35.436Z,5.90
2018-08-23T14:03:03.657Z,5.13
2018-08-23T14:05:31.875Z,5.37
2018-08-23T14:08:00.103Z,5.10
2018-08-23T14:10:28.312Z,5.60
2018-08-23T14:12:56.611Z,5.40
2018-08-23T14:15:30.067Z,5.87
2018-08-23T14:17:58.383Z,5.37
2018-08-23T14:20:26.601Z,4.83
2018-08-23T14:22:54.874Z,5.13
2018-08-23T14:25:23.099Z,6.00
2018-08-23T14:27:51.327Z,5.03
2018-08-23T14:30:19.548Z,5.60
2018-08-23T14:32:47.787Z,5.60
2018-08-23T14:35:16.003Z,5.87
2018-08-23T14:37:44.236Z,6.27
2018-08-23T14:40:12.472Z,5.73
2018-08-23T14:42:40.682Z,6.03
2018-08-23T14:45:08.913Z,5.80
2018-08-23T14:47:42.623Z,5.43
2018-08-23T14:50:10.847Z,5.53
2018-08-23T14:52:39.054Z,5.97
2018-08-23T14:55:07.321Z,5.70
2018-08-23T14:57:36.625Z,5.90
2018-08-23T15:00:04.891Z,5.73
2018-08-23T15:02:33.111Z,5.73
2018-08-23T15:05:01.329Z,5.60
2018-08-23T15:07:29.572Z,5.70
2018-08-23T15:09:57.783Z,5.83
2018-08-23T15:12:25.987Z,6.40
2018-08-23T15:14:54.220Z,5.37
2018-08-23T15:17:22.426Z,5.43
2018-08-23T15:19:50.655Z,6.07
2018-08-23T15:22:18.879Z,6.60
2018-08-23T15:24:47.115Z,6.07
2018-08-23T15:27:15.425Z,6.50
2018-08-23T15:29:43.555Z,5.80
2018-08-23T15:32:11.785Z,5.90
2018-08-23T15:34:40.012Z,6.00
2018-08-23T15:37:08.216Z,5.80
2018-08-23T15:39:36.529Z,5.27
2018-08-23T15:42:04.676Z,5.57
2018-08-23T15:44:32.902Z,5.03
2018-08-23T15:47:01.175Z,5.17
2018-08-23T15:49:29.389Z,5.10
2018-08-23T15:51:57.606Z,5.50
2018-08-23T15:54:25.840Z,6.50
2018-08-23T15:56:54.048Z,5.20
2018-08-23T15:59:22.261Z,5.73
2018-08-23T16:01:50.481Z,5.43
2018-08-23T16:04:18.717Z,5.60
2018-08-23T16:06:46.931Z,5.67
2018-08-23T16:09:15.147Z,5.70
2018-08-23T16:11:43.367Z,5.73
2018-08-23T16:14:11.591Z,5.33
2018-08-23T16:16:45.279Z,4.97
2018-08-23T16:19:18.938Z,6.20
2018-08-23T16:21:52.515Z,5.90
2018-08-23T16:24:20.741Z,6.03
2018-08-23T16:26:54.324Z,5.20
2018-08-23T16:29:22.551Z,5.33
2018-08-23T16:31:50.797Z,5.40
2018-08-23T16:34:19.033Z,5.20
2018-08-23T16:36:47.249Z,5.27
2018-08-23T16:39:15.472Z,5.53
2018-08-23T16:41:43.683Z,5.37
2018-08-23T16:44:11.929Z,5.50
2018-08-23T16:46:40.130Z,5.33
2018-08-23T16:49:08.392Z,5.07
2018-08-23T16:51:36.629Z,5.83
2018-08-23T16:54:04.892Z,5.50
2018-08-23T16:56:33.114Z,5.23
2018-08-23T16:59:01.334Z,5.87
2018-08-23T17:01:29.574Z,5.60
2018-08-23T17:03:58.263Z,6.10
2018-08-23T17:06:27.771Z,5.17
2018-08-23T17:08:56.245Z,5.70
2018-08-23T17:11:24.467Z,5.80
2018-08-23T17:13:52.679Z,5.40
2018-08-23T17:16:26.338Z,5.23
2018-08-23T17:18:54.557Z,5.70
2018-08-23T17:21:22.828Z,5.20
2018-08-23T17:23:51.044Z,5.40
2018-08-23T17:26:19.280Z,5.30
2018-08-23T17:28:47.490Z,4.93
2018-08-23T17:31:15.728Z,5.53
2018-08-23T17:33:43.954Z,4.93
2018-08-23T17:36:12.196Z,5.70
2018-08-23T17:38:40.415Z,4.70
2018-08-23T17:41:08.652Z,4.37
2018-08-23T17:43:36.866Z,4.40
2018-08-23T17:46:05.120Z,4.63
2018-08-23T17:48:33.416Z,4.40
2018-08-23T17:51:01.576Z,4.07
2018-08-23T17:53:29.800Z,4.77
2018-08-23T17:55:58.032Z,4.37
2018-08-23T17:58:26.250Z,4.47
2018-08-23T18:00:54.527Z,4.90
2018-08-23T18:03:22.710Z,4.53
2018-08-23T18:05:51.485Z,4.60
2018-08-23T18:08:19.690Z,4.60
2018-08-23T18:10:47.923Z,5.43
2018-08-23T18:13:16.139Z,4.37
2018-08-23T18:15:49.880Z,4.20
2018-08-23T18:18:18.086Z,5.77
2018-08-23T18:20:46.314Z,5.90
2018-08-23T18:23:14.531Z,6.90
2018-08-23T18:25:42.780Z,5.93
2018-08-23T18:28:10.999Z,7.03
2018-08-23T18:30:39.236Z,7.87
2018-08-23T18:33:07.486Z,6.03
2018-08-23T18:35:35.724Z,5.27
2018-08-23T18:38:03.949Z,4.07
2018-08-23T18:40:32.171Z,5.40
2018-08-23T18:43:00.389Z,6.47
2018-08-23T18:45:28.602Z,6.70
2018-08-23T18:47:56.838Z,5.73
2018-08-23T18:50:25.057Z,5.10
2018-08-23T18:52:53.298Z,4.90
2018-08-23T18:55:21.498Z,5.20
2018-08-23T18:57:49.731Z,5.53
2018-08-23T19:00:18.024Z,4.60
2018-08-23T19:02:46.180Z,4.80
2018-08-23T19:05:14.390Z,4.87
2018-08-23T19:07:43.468Z,4.50
2018-08-23T19:10:12.247Z,4.40
2018-08-23T19:12:40.457Z,4.30
2018-08-23T19:15:08.788Z,4.87
2018-08-23T19:17:38.927Z,5.20
2018-08-23T19:20:08.112Z,4.27
2018-08-23T19:22:36.423Z,5.30
2018-08-23T19:25:04.753Z,4.73
2018-08-23T19:27:32.955Z,4.43
2018-08-23T19:30:01.183Z,5.10
2018-08-23T19:32:29.422Z,4.13
2018-08-23T19:34:57.633Z,4.53
2018-08-23T19:37:25.853Z,4.60
2018-08-23T19:39:54.432Z,4.33
2018-08-23T19:42:22.699Z,4.83
2018-08-23T19:44:56.447Z,5.50
2018-08-23T19:47:30.194Z,5.20
2018-08-23T19:49:59.720Z,4.57
2018-08-23T19:52:27.980Z,5.80
2018-08-23T19:54:56.186Z,4.70
2018-08-23T19:57:24.423Z,5.50
2018-08-23T19:59:52.645Z,5.30
2018-08-23T20:02:20.873Z,5.07
2018-08-23T20:04:49.086Z,5.17
2018-08-23T20:07:17.307Z,4.67
2018-08-23T20:09:45.538Z,6.10
2018-08-23T20:12:13.805Z,5.50
2018-08-23T20:14:42.013Z,5.93
2018-08-23T20:17:10.230Z,5.17
2018-08-23T20:19:38.450Z,4.73
2018-08-23T20:22:07.827Z,5.67
2018-08-23T20:24:36.267Z,5.30
2018-08-23T20:27:04.496Z,5.13
2018-08-23T20:29:32.961Z,5.63
2018-08-23T20:32:01.415Z,6.07
2018-08-23T20:34:29.679Z,5.67
2018-08-23T20:36:57.906Z,5.63
2018-08-23T20:39:26.362Z,5.33
2018-08-23T20:41:54.375Z,5.43
2018-08-23T20:44:22.616Z,5.37
2018-08-23T20:46:50.891Z,5.20
2018-08-23T20:49:19.105Z,4.93
2018-08-23T20:51:47.326Z,4.87
2018-08-23T20:54:15.555Z,5.73
2018-08-23T20:56:43.774Z,6.23
2018-08-23T20:59:12.003Z,5.90
2018-08-23T21:01:40.206Z,6.00
2018-08-23T21:04:08.696Z,5.90
2018-08-23T21:06:36.873Z,5.40
2018-08-23T21:09:08.934Z,5.57
2018-08-23T21:11:37.337Z,5.10
2018-08-23T21:14:05.559Z,5.13
2018-08-23T21:16:33.779Z,5.80
2018-08-23T21:19:02.001Z,5.43
2018-08-23T21:21:30.220Z,5.53
2018-08-23T21:23:58.446Z,6.00
2018-08-23T21:26:26.670Z,5.40
2018-08-23T21:28:54.939Z,6.57
2018-08-23T21:31:23.172Z,6.37
2018-08-23T21:33:51.414Z,6.03
2018-08-23T21:36:19.642Z,5.90
2018-08-23T21:38:47.857Z,6.30
2018-08-23T21:41:16.092Z,6.87
2018-08-23T21:43:44.306Z,5.80
2018-08-23T21:46:12.528Z,5.90
2018-08-23T21:48:40.771Z,6.30
2018-08-23T21:51:09.023Z,6.67
2018-08-23T21:53:37.240Z,5.60
2018-08-23T21:56:05.457Z,5.90
2018-08-23T21:58:33.687Z,6.83
2018-08-23T22:01:05.881Z,5.93
2018-08-23T22:03:34.156Z,6.67
2018-08-23T22:06:02.370Z,6.67
2018-08-23T22:08:30.593Z,6.70
2018-08-23T22:10:58.816Z,6.67
2018-08-23T22:13:27.041Z,6.10
2018-08-23T22:15:55.266Z,6.63
2018-08-23T22:18:23.492Z,6.90
2018-08-23T22:20:51.725Z,6.77
2018-08-23T22:23:19.926Z,5.97
2018-08-23T22:25:48.146Z,6.23
2018-08-23T22:28:16.370Z,6.50
2018-08-23T22:30:44.594Z,6.20
2018-08-23T22:33:13.338Z,6.63
2018-08-23T22:35:41.745Z,7.07
2018-08-23T22:38:10.434Z,6.93
2018-08-23T22:40:38.769Z,7.17
2018-08-23T22:43:07.269Z,6.23
2018-08-23T22:45:35.530Z,6.33
2018-08-23T22:48:03.764Z,6.87
2018-08-23T22:50:32.094Z,6.60
2018-08-23T22:53:00.317Z,6.03
2018-08-23T22:55:28.539Z,6.53
2018-08-23T22:57:56.759Z,5.67
2018-08-23T23:00:30.457Z,6.50
2018-08-23T23:02:58.680Z,6.40
2018-08-23T23:05:26.904Z,6.00
2018-08-23T23:07:55.150Z,6.70
2018-08-23T23:10:23.379Z,6.70
2018-08-23T23:12:51.615Z,6.43
2018-08-23T23:15:24.899Z,5.97
2018-08-23T23:17:53.132Z,5.83
2018-08-23T23:20:21.348Z,7.07
2018-08-23T23:22:49.564Z,6.00
2018-08-23T23:25:17.777Z,6.43
2018-08-23T23:27:45.991Z,6.87
2018-08-23T23:30:14.209Z,6.53
2018-08-23T23:32:42.479Z,6.10
2018-08-23T23:35:10.710Z,7.10
2018-08-23T23:37:38.954Z,6.17
2018-08-23T23:40:07.194Z,6.90
2018-08-23T23:42:35.532Z,6.30
2018-08-23T23:45:03.899Z,6.30
2018-08-23T23:47:32.128Z,6.47
2018-08-23T23:50:00.349Z,6.20
2018-08-23T23:52:28.570Z,6.73
2018-08-23T23:54:56.786Z,7.00
2018-08-23T23:57:25.010Z,6.73
2018-08-23T23:59:53.299Z,6.43
